sensor_id;sensor_type;location;lat;lon;timestamp;P1;durP1;ratioP1;P2;durP2;ratioP2
9306;SDS011;4691;47.612;7.610;2022-09-30T00:01:40;10.80;;;6.90;;
9306;SDS011;4691;47.612;7.610;2022-09-30T00:04:08;11.50;;;7.43;;
9306;SDS011;4691;47.612;7.610;2022-09-30T00:06:36;12.52;;;8.43;;
9306;SDS011;4691;47.612;7.610;2022-09-30T00:09:02;10.30;;;7.30;;
9306;SDS011;4691;47.612;7.610;2022-09-30T00:11:29;9.05;;;7.10;;
9306;SDS011;4691;47.612;7.610;2022-09-30T00:13:57;9.32;;;6.88;;
9306;SDS011;4691;47.612;7.610;2022-09-30T00:16:23;12.30;;;6.72;;
9306;SDS011;4691;47.612;7.610;2022-09-30T00:18:50;15.07;;;6.63;;
9306;SDS011;4691;47.612;7.610;2022-09-30T00:21:19;7.43;;;5.10;;
9306;SDS011;4691;47.612;7.610;2022-09-30T00:23:45;6.43;;;4.72;;
9306;SDS011;4691;47.612;7.610;2022-09-30T00:26:12;7.38;;;5.28;;
9306;SDS011;4691;47.612;7.610;2022-09-30T00:28:39;6.17;;;4.97;;
9306;SDS011;4691;47.612;7.610;2022-09-30T00:31:06;10.60;;;5.10;;
9306;SDS011;4691;47.612;7.610;2022-09-30T00:33:35;11.73;;;5.28;;
9306;SDS011;4691;47.612;7.610;2022-09-30T00:36:00;6.63;;;5.60;;
9306;SDS011;4691;47.612;7.610;2022-09-30T00:38:26;9.50;;;5.07;;
9306;SDS011;4691;47.612;7.610;2022-09-30T00:40:52;7.30;;;4.70;;
9306;SDS011;4691;47.612;7.610;2022-09-30T00:43:19;6.53;;;4.90;;
9306;SDS011;4691;47.612;7.610;2022-09-30T00:46:02;7.22;;;4.75;;
9306;SDS011;4691;47.612;7.610;2022-09-30T00:48:33;6.32;;;4.82;;
9306;SDS011;4691;47.612;7.610;2022-09-30T00:51:02;8.27;;;5.50;;
9306;SDS011;4691;47.612;7.610;2022-09-30T00:58:43;8.25;;;5.70;;
9306;SDS011;4691;47.612;7.610;2022-09-30T01:01:20;7.93;;;5.80;;
9306;SDS011;4691;47.612;7.610;2022-09-30T01:03:51;9.15;;;6.18;;
9306;SDS011;4691;47.612;7.610;2022-09-30T01:06:21;7.55;;;6.28;;
9306;SDS011;4691;47.612;7.610;2022-09-30T01:08:48;9.90;;;6.75;;
9306;SDS011;4691;47.612;7.610;2022-09-30T01:11:13;10.48;;;8.23;;
9306;SDS011;4691;47.612;7.610;2022-09-30T01:13:40;13.90;;;9.98;;
9306;SDS011;4691;47.612;7.610;2022-09-30T01:18:59;12.43;;;9.48;;
9306;SDS011;4691;47.612;7.610;2022-09-30T01:30:03;14.63;;;10.50;;
9306;SDS011;4691;47.612;7.610;2022-09-30T01:32:51;12.02;;;9.70;;
9306;SDS011;4691;47.612;7.610;2022-09-30T01:40:39;14.38;;;9.70;;
9306;SDS011;4691;47.612;7.610;2022-09-30T01:46:02;13.98;;;9.63;;
9306;SDS011;4691;47.612;7.610;2022-09-30T01:48:54;13.77;;;9.82;;
9306;SDS011;4691;47.612;7.610;2022-09-30T01:51:34;11.70;;;9.30;;
9306;SDS011;4691;47.612;7.610;2022-09-30T01:54:39;13.95;;;9.15;;
9306;SDS011;4691;47.612;7.610;2022-09-30T01:57:26;14.02;;;9.95;;
9306;SDS011;4691;47.612;7.610;2022-09-30T01:59:56;12.20;;;9.52;;
9306;SDS011;4691;47.612;7.610;2022-09-30T02:02:28;11.95;;;9.05;;
9306;SDS011;4691;47.612;7.610;2022-09-30T02:05:02;13.85;;;9.38;;
9306;SDS011;4691;47.612;7.610;2022-09-30T02:10:40;12.10;;;9.30;;
9306;SDS011;4691;47.612;7.610;2022-09-30T02:13:13;14.23;;;9.35;;
9306;SDS011;4691;47.612;7.610;2022-09-30T02:15:43;11.88;;;8.68;;
9306;SDS011;4691;47.612;7.610;2022-09-30T02:19:46;15.15;;;8.20;;
9306;SDS011;4691;47.612;7.610;2022-09-30T02:22:23;13.07;;;7.53;;
9306;SDS011;4691;47.612;7.610;2022-09-30T02:24:54;12.07;;;8.57;;
9306;SDS011;4691;47.612;7.610;2022-09-30T02:27:24;12.68;;;8.95;;
9306;SDS011;4691;47.612;7.610;2022-09-30T02:29:59;10.73;;;8.05;;
9306;SDS011;4691;47.612;7.610;2022-09-30T02:32:32;9.65;;;8.35;;
9306;SDS011;4691;47.612;7.610;2022-09-30T02:35:07;10.93;;;7.63;;
9306;SDS011;4691;47.612;7.610;2022-09-30T02:37:43;12.35;;;7.95;;
9306;SDS011;4691;47.612;7.610;2022-09-30T02:40:19;10.50;;;8.25;;
9306;SDS011;4691;47.612;7.610;2022-09-30T02:42:46;12.05;;;8.77;;
9306;SDS011;4691;47.612;7.610;2022-09-30T02:45:13;14.45;;;10.40;;
9306;SDS011;4691;47.612;7.610;2022-09-30T02:53:12;11.13;;;9.55;;
9306;SDS011;4691;47.612;7.610;2022-09-30T02:58:31;15.73;;;9.77;;
9306;SDS011;4691;47.612;7.610;2022-09-30T03:01:00;12.55;;;8.80;;
9306;SDS011;4691;47.612;7.610;2022-09-30T03:03:33;12.35;;;9.18;;
9306;SDS011;4691;47.612;7.610;2022-09-30T03:06:03;13.43;;;9.65;;
9306;SDS011;4691;47.612;7.610;2022-09-30T03:08:29;18.17;;;10.13;;
9306;SDS011;4691;47.612;7.610;2022-09-30T03:10:55;13.55;;;9.00;;
9306;SDS011;4691;47.612;7.610;2022-09-30T03:27:58;17.13;;;12.25;;
9306;SDS011;4691;47.612;7.610;2022-09-30T03:30:45;17.35;;;11.73;;
9306;SDS011;4691;47.612;7.610;2022-09-30T03:35:59;18.02;;;12.32;;
9306;SDS011;4691;47.612;7.610;2022-09-30T03:41:00;16.08;;;11.60;;
9306;SDS011;4691;47.612;7.610;2022-09-30T03:43:43;17.63;;;12.15;;
9306;SDS011;4691;47.612;7.610;2022-09-30T03:48:51;20.45;;;14.13;;
9306;SDS011;4691;47.612;7.610;2022-09-30T03:51:22;21.08;;;14.85;;
9306;SDS011;4691;47.612;7.610;2022-09-30T03:53:49;22.92;;;15.23;;
9306;SDS011;4691;47.612;7.610;2022-09-30T03:56:15;20.58;;;14.45;;
9306;SDS011;4691;47.612;7.610;2022-09-30T03:58:52;21.40;;;13.38;;
9306;SDS011;4691;47.612;7.610;2022-09-30T04:01:18;21.92;;;15.25;;
9306;SDS011;4691;47.612;7.610;2022-09-30T04:03:50;23.15;;;14.77;;
9306;SDS011;4691;47.612;7.610;2022-09-30T04:06:17;20.33;;;13.75;;
9306;SDS011;4691;47.612;7.610;2022-09-30T04:08:46;18.73;;;13.38;;
9306;SDS011;4691;47.612;7.610;2022-09-30T04:11:12;19.55;;;13.02;;
9306;SDS011;4691;47.612;7.610;2022-09-30T04:13:38;20.83;;;14.05;;
9306;SDS011;4691;47.612;7.610;2022-09-30T04:16:04;19.85;;;13.93;;
9306;SDS011;4691;47.612;7.610;2022-09-30T04:18:30;38.00;;;25.92;;
9306;SDS011;4691;47.612;7.610;2022-09-30T04:20:56;35.38;;;21.75;;
9306;SDS011;4691;47.612;7.610;2022-09-30T04:23:23;34.88;;;22.42;;
9306;SDS011;4691;47.612;7.610;2022-09-30T04:25:50;36.45;;;19.40;;
9306;SDS011;4691;47.612;7.610;2022-09-30T04:28:19;37.20;;;20.05;;
9306;SDS011;4691;47.612;7.610;2022-09-30T04:30:45;30.35;;;17.30;;
9306;SDS011;4691;47.612;7.610;2022-09-30T04:33:10;25.20;;;16.65;;
9306;SDS011;4691;47.612;7.610;2022-09-30T04:35:36;25.05;;;15.75;;
9306;SDS011;4691;47.612;7.610;2022-09-30T04:38:03;29.42;;;17.55;;
9306;SDS011;4691;47.612;7.610;2022-09-30T04:40:31;33.33;;;18.00;;
9306;SDS011;4691;47.612;7.610;2022-09-30T04:42:56;31.42;;;17.35;;
9306;SDS011;4691;47.612;7.610;2022-09-30T04:45:22;30.00;;;16.85;;
9306;SDS011;4691;47.612;7.610;2022-09-30T04:47:48;19.88;;;12.00;;
9306;SDS011;4691;47.612;7.610;2022-09-30T04:50:13;20.85;;;14.65;;
9306;SDS011;4691;47.612;7.610;2022-09-30T04:52:42;21.35;;;14.20;;
9306;SDS011;4691;47.612;7.610;2022-09-30T04:55:08;25.30;;;15.05;;
9306;SDS011;4691;47.612;7.610;2022-09-30T04:57:34;22.92;;;15.10;;
9306;SDS011;4691;47.612;7.610;2022-09-30T05:00:00;27.98;;;16.75;;
9306;SDS011;4691;47.612;7.610;2022-09-30T05:02:26;28.88;;;17.00;;
9306;SDS011;4691;47.612;7.610;2022-09-30T05:04:51;24.10;;;15.43;;
9306;SDS011;4691;47.612;7.610;2022-09-30T05:07:27;24.42;;;15.02;;
9306;SDS011;4691;47.612;7.610;2022-09-30T05:09:54;19.23;;;12.65;;
9306;SDS011;4691;47.612;7.610;2022-09-30T05:12:19;20.85;;;11.95;;
9306;SDS011;4691;47.612;7.610;2022-09-30T05:14:44;15.77;;;10.60;;
9306;SDS011;4691;47.612;7.610;2022-09-30T05:17:09;17.65;;;11.65;;
9306;SDS011;4691;47.612;7.610;2022-09-30T05:19:35;14.68;;;10.13;;
9306;SDS011;4691;47.612;7.610;2022-09-30T05:22:00;18.42;;;10.82;;
9306;SDS011;4691;47.612;7.610;2022-09-30T05:24:26;16.40;;;9.15;;
9306;SDS011;4691;47.612;7.610;2022-09-30T05:26:54;13.43;;;8.77;;
9306;SDS011;4691;47.612;7.610;2022-09-30T05:29:19;14.60;;;9.45;;
9306;SDS011;4691;47.612;7.610;2022-09-30T05:31:44;19.35;;;11.23;;
9306;SDS011;4691;47.612;7.610;2022-09-30T05:34:10;17.35;;;10.63;;
9306;SDS011;4691;47.612;7.610;2022-09-30T05:36:35;20.90;;;12.35;;
9306;SDS011;4691;47.612;7.610;2022-09-30T05:39:00;25.50;;;13.30;;
9306;SDS011;4691;47.612;7.610;2022-09-30T05:41:26;30.95;;;14.27;;
9306;SDS011;4691;47.612;7.610;2022-09-30T05:43:51;30.58;;;16.77;;
9306;SDS011;4691;47.612;7.610;2022-09-30T05:46:17;26.38;;;14.65;;
9306;SDS011;4691;47.612;7.610;2022-09-30T05:48:43;26.45;;;16.17;;
9306;SDS011;4691;47.612;7.610;2022-09-30T05:51:09;25.25;;;15.90;;
9306;SDS011;4691;47.612;7.610;2022-09-30T05:53:35;30.73;;;15.30;;
9306;SDS011;4691;47.612;7.610;2022-09-30T05:56:02;24.63;;;14.85;;
9306;SDS011;4691;47.612;7.610;2022-09-30T05:58:29;21.33;;;12.85;;
9306;SDS011;4691;47.612;7.610;2022-09-30T06:00:55;20.45;;;12.57;;
9306;SDS011;4691;47.612;7.610;2022-09-30T06:03:20;20.25;;;11.98;;
9306;SDS011;4691;47.612;7.610;2022-09-30T06:08:47;21.10;;;13.07;;
9306;SDS011;4691;47.612;7.610;2022-09-30T06:11:14;24.60;;;14.07;;
9306;SDS011;4691;47.612;7.610;2022-09-30T06:13:41;22.92;;;14.13;;
9306;SDS011;4691;47.612;7.610;2022-09-30T06:16:08;22.20;;;14.05;;
9306;SDS011;4691;47.612;7.610;2022-09-30T06:18:34;21.73;;;13.65;;
9306;SDS011;4691;47.612;7.610;2022-09-30T06:21:01;26.30;;;16.17;;
9306;SDS011;4691;47.612;7.610;2022-09-30T06:23:28;22.30;;;14.35;;
9306;SDS011;4691;47.612;7.610;2022-09-30T06:25:54;20.40;;;13.50;;
9306;SDS011;4691;47.612;7.610;2022-09-30T06:28:20;22.27;;;13.75;;
9306;SDS011;4691;47.612;7.610;2022-09-30T06:30:46;21.27;;;13.40;;
9306;SDS011;4691;47.612;7.610;2022-09-30T06:33:12;21.48;;;13.70;;
9306;SDS011;4691;47.612;7.610;2022-09-30T06:35:38;22.58;;;14.00;;
9306;SDS011;4691;47.612;7.610;2022-09-30T06:38:07;24.38;;;13.75;;
9306;SDS011;4691;47.612;7.610;2022-09-30T06:40:35;30.65;;;16.38;;
9306;SDS011;4691;47.612;7.610;2022-09-30T06:43:02;25.35;;;16.13;;
9306;SDS011;4691;47.612;7.610;2022-09-30T06:45:28;25.75;;;16.08;;
9306;SDS011;4691;47.612;7.610;2022-09-30T06:47:57;22.67;;;14.68;;
9306;SDS011;4691;47.612;7.610;2022-09-30T06:50:23;19.80;;;13.15;;
9306;SDS011;4691;47.612;7.610;2022-09-30T06:52:49;35.42;;;21.92;;
9306;SDS011;4691;47.612;7.610;2022-09-30T06:55:15;41.75;;;24.75;;
9306;SDS011;4691;47.612;7.610;2022-09-30T06:57:42;45.88;;;26.75;;
9306;SDS011;4691;47.612;7.610;2022-09-30T07:00:07;35.08;;;20.42;;
9306;SDS011;4691;47.612;7.610;2022-09-30T07:02:33;30.63;;;17.25;;
9306;SDS011;4691;47.612;7.610;2022-09-30T07:05:07;29.23;;;16.42;;
9306;SDS011;4691;47.612;7.610;2022-09-30T07:07:33;31.42;;;15.75;;
9306;SDS011;4691;47.612;7.610;2022-09-30T07:15:42;25.30;;;14.90;;
9306;SDS011;4691;47.612;7.610;2022-09-30T07:18:07;22.83;;;14.45;;
9306;SDS011;4691;47.612;7.610;2022-09-30T07:20:32;41.10;;;21.13;;
9306;SDS011;4691;47.612;7.610;2022-09-30T07:22:58;20.60;;;13.43;;
9306;SDS011;4691;47.612;7.610;2022-09-30T07:25:24;19.42;;;12.48;;
9306;SDS011;4691;47.612;7.610;2022-09-30T07:27:52;17.98;;;11.35;;
9306;SDS011;4691;47.612;7.610;2022-09-30T07:30:19;18.90;;;12.27;;
9306;SDS011;4691;47.612;7.610;2022-09-30T07:32:44;18.58;;;11.95;;
9306;SDS011;4691;47.612;7.610;2022-09-30T07:35:09;17.30;;;11.63;;
9306;SDS011;4691;47.612;7.610;2022-09-30T07:37:35;19.10;;;12.95;;
9306;SDS011;4691;47.612;7.610;2022-09-30T07:40:02;20.75;;;13.32;;
9306;SDS011;4691;47.612;7.610;2022-09-30T07:42:29;20.58;;;13.90;;
9306;SDS011;4691;47.612;7.610;2022-09-30T07:44:55;19.50;;;13.15;;
9306;SDS011;4691;47.612;7.610;2022-09-30T07:47:21;24.77;;;15.00;;
9306;SDS011;4691;47.612;7.610;2022-09-30T07:49:46;21.40;;;14.07;;
9306;SDS011;4691;47.612;7.610;2022-09-30T07:52:12;19.00;;;13.38;;
9306;SDS011;4691;47.612;7.610;2022-09-30T07:54:38;24.80;;;14.07;;
9306;SDS011;4691;47.612;7.610;2022-09-30T07:57:04;18.40;;;13.95;;
9306;SDS011;4691;47.612;7.610;2022-09-30T07:59:30;16.98;;;12.65;;
9306;SDS011;4691;47.612;7.610;2022-09-30T08:01:58;19.63;;;13.10;;
9306;SDS011;4691;47.612;7.610;2022-09-30T08:04:25;17.38;;;12.55;;
9306;SDS011;4691;47.612;7.610;2022-09-30T08:06:53;17.02;;;12.13;;
9306;SDS011;4691;47.612;7.610;2022-09-30T08:09:20;18.00;;;12.70;;
9306;SDS011;4691;47.612;7.610;2022-09-30T08:11:47;16.85;;;13.32;;
9306;SDS011;4691;47.612;7.610;2022-09-30T08:14:13;22.65;;;14.80;;
9306;SDS011;4691;47.612;7.610;2022-09-30T08:16:40;18.33;;;12.88;;
9306;SDS011;4691;47.612;7.610;2022-09-30T08:19:06;18.27;;;12.27;;
9306;SDS011;4691;47.612;7.610;2022-09-30T08:21:31;16.35;;;12.18;;
9306;SDS011;4691;47.612;7.610;2022-09-30T08:23:57;17.30;;;13.30;;
9306;SDS011;4691;47.612;7.610;2022-09-30T08:26:22;17.20;;;12.63;;
9306;SDS011;4691;47.612;7.610;2022-09-30T08:28:48;21.23;;;13.73;;
9306;SDS011;4691;47.612;7.610;2022-09-30T08:31:15;19.83;;;13.65;;
9306;SDS011;4691;47.612;7.610;2022-09-30T08:33:42;20.92;;;14.48;;
9306;SDS011;4691;47.612;7.610;2022-09-30T08:36:18;21.17;;;14.50;;
9306;SDS011;4691;47.612;7.610;2022-09-30T08:38:45;23.10;;;15.68;;
9306;SDS011;4691;47.612;7.610;2022-09-30T08:41:15;25.02;;;16.38;;
9306;SDS011;4691;47.612;7.610;2022-09-30T08:51:51;25.08;;;18.02;;
9306;SDS011;4691;47.612;7.610;2022-09-30T08:54:22;30.70;;;19.30;;
9306;SDS011;4691;47.612;7.610;2022-09-30T08:56:49;28.83;;;17.88;;
9306;SDS011;4691;47.612;7.610;2022-09-30T08:59:31;31.58;;;19.08;;
9306;SDS011;4691;47.612;7.610;2022-09-30T09:02:03;30.50;;;17.98;;
9306;SDS011;4691;47.612;7.610;2022-09-30T09:04:35;24.52;;;17.08;;
9306;SDS011;4691;47.612;7.610;2022-09-30T09:07:04;28.42;;;18.73;;
9306;SDS011;4691;47.612;7.610;2022-09-30T09:20:54;24.45;;;17.95;;
9306;SDS011;4691;47.612;7.610;2022-09-30T09:23:21;22.70;;;16.75;;
9306;SDS011;4691;47.612;7.610;2022-09-30T09:25:48;25.38;;;17.05;;
9306;SDS011;4691;47.612;7.610;2022-09-30T09:28:36;26.80;;;17.00;;
9306;SDS011;4691;47.612;7.610;2022-09-30T09:31:07;24.27;;;17.38;;
9306;SDS011;4691;47.612;7.610;2022-09-30T09:33:38;21.77;;;16.35;;
9306;SDS011;4691;47.612;7.610;2022-09-30T09:41:40;27.27;;;19.60;;
9306;SDS011;4691;47.612;7.610;2022-09-30T09:49:39;29.60;;;17.38;;
9306;SDS011;4691;47.612;7.610;2022-09-30T09:54:37;25.13;;;17.77;;
9306;SDS011;4691;47.612;7.610;2022-09-30T09:57:11;28.55;;;19.70;;
9306;SDS011;4691;47.612;7.610;2022-09-30T10:00:22;31.80;;;19.98;;
9306;SDS011;4691;47.612;7.610;2022-09-30T10:03:24;34.10;;;21.05;;
9306;SDS011;4691;47.612;7.610;2022-09-30T10:08:29;32.50;;;21.90;;
9306;SDS011;4691;47.612;7.610;2022-09-30T10:11:01;30.90;;;21.90;;
9306;SDS011;4691;47.612;7.610;2022-09-30T10:13:32;29.58;;;21.88;;
9306;SDS011;4691;47.612;7.610;2022-09-30T10:16:08;31.00;;;21.70;;
9306;SDS011;4691;47.612;7.610;2022-09-30T10:18:51;29.25;;;20.95;;
9306;SDS011;4691;47.612;7.610;2022-09-30T10:21:20;27.20;;;20.90;;
9306;SDS011;4691;47.612;7.610;2022-09-30T10:23:48;31.52;;;21.05;;
9306;SDS011;4691;47.612;7.610;2022-09-30T10:28:49;32.90;;;21.63;;
9306;SDS011;4691;47.612;7.610;2022-09-30T10:31:26;29.20;;;21.73;;
9306;SDS011;4691;47.612;7.610;2022-09-30T10:36:30;29.40;;;21.25;;
9306;SDS011;4691;47.612;7.610;2022-09-30T10:39:07;29.83;;;21.42;;
9306;SDS011;4691;47.612;7.610;2022-09-30T10:41:45;29.48;;;20.17;;
9306;SDS011;4691;47.612;7.610;2022-09-30T10:44:19;26.45;;;20.33;;
9306;SDS011;4691;47.612;7.610;2022-09-30T10:46:50;28.27;;;20.33;;
9306;SDS011;4691;47.612;7.610;2022-09-30T10:49:27;25.08;;;19.20;;
9306;SDS011;4691;47.612;7.610;2022-09-30T12:23:35;11.55;;;9.75;;
9306;SDS011;4691;47.612;7.610;2022-09-30T12:26:04;10.10;;;8.95;;
9306;SDS011;4691;47.612;7.610;2022-09-30T12:28:37;14.05;;;8.85;;
9306;SDS011;4691;47.612;7.610;2022-09-30T12:45:26;14.73;;;8.25;;
9306;SDS011;4691;47.612;7.610;2022-09-30T12:48:17;10.80;;;8.15;;
9306;SDS011;4691;47.612;7.610;2022-09-30T12:50:46;10.55;;;8.48;;
9306;SDS011;4691;47.612;7.610;2022-09-30T12:55:53;9.50;;;8.60;;
9306;SDS011;4691;47.612;7.610;2022-09-30T12:58:30;9.00;;;7.82;;
9306;SDS011;4691;47.612;7.610;2022-09-30T13:00:59;10.75;;;8.77;;
9306;SDS011;4691;47.612;7.610;2022-09-30T13:04:08;9.07;;;8.18;;
9306;SDS011;4691;47.612;7.610;2022-09-30T13:19:35;8.18;;;7.38;;
9306;SDS011;4691;47.612;7.610;2022-09-30T13:25:03;10.35;;;8.20;;
9306;SDS011;4691;47.612;7.610;2022-09-30T13:27:32;7.25;;;6.13;;
9306;SDS011;4691;47.612;7.610;2022-09-30T13:32:37;10.88;;;7.13;;
9306;SDS011;4691;47.612;7.610;2022-09-30T13:40:54;6.35;;;5.70;;
9306;SDS011;4691;47.612;7.610;2022-09-30T13:46:40;7.75;;;6.65;;
9306;SDS011;4691;47.612;7.610;2022-09-30T13:51:45;7.70;;;5.43;;
9306;SDS011;4691;47.612;7.610;2022-09-30T13:54:24;7.63;;;5.82;;
9306;SDS011;4691;47.612;7.610;2022-09-30T13:56:58;6.97;;;4.57;;
9306;SDS011;4691;47.612;7.610;2022-09-30T14:05:11;5.35;;;4.22;;
9306;SDS011;4691;47.612;7.610;2022-09-30T14:17:02;3.78;;;3.40;;
9306;SDS011;4691;47.612;7.610;2022-09-30T14:22:21;3.78;;;3.15;;
9306;SDS011;4691;47.612;7.610;2022-09-30T14:24:50;4.15;;;3.22;;
9306;SDS011;4691;47.612;7.610;2022-09-30T14:27:26;5.18;;;3.58;;
9306;SDS011;4691;47.612;7.610;2022-09-30T14:35:16;3.42;;;3.13;;
9306;SDS011;4691;47.612;7.610;2022-09-30T14:37:46;3.17;;;2.88;;
9306;SDS011;4691;47.612;7.610;2022-09-30T14:40:19;5.00;;;3.10;;
9306;SDS011;4691;47.612;7.610;2022-09-30T14:42:50;4.05;;;2.90;;
9306;SDS011;4691;47.612;7.610;2022-09-30T14:45:21;2.97;;;2.15;;
9306;SDS011;4691;47.612;7.610;2022-09-30T14:47:50;3.33;;;2.15;;
9306;SDS011;4691;47.612;7.610;2022-09-30T14:50:20;3.97;;;2.47;;
9306;SDS011;4691;47.612;7.610;2022-09-30T14:52:50;4.25;;;3.00;;
9306;SDS011;4691;47.612;7.610;2022-09-30T14:55:24;3.05;;;2.40;;
9306;SDS011;4691;47.612;7.610;2022-09-30T15:00:42;3.05;;;2.25;;
9306;SDS011;4691;47.612;7.610;2022-09-30T15:03:10;3.47;;;2.00;;
9306;SDS011;4691;47.612;7.610;2022-09-30T15:05:37;4.60;;;2.30;;
9306;SDS011;4691;47.612;7.610;2022-09-30T15:08:10;2.92;;;2.35;;
9306;SDS011;4691;47.612;7.610;2022-09-30T15:13:41;5.75;;;2.45;;
9306;SDS011;4691;47.612;7.610;2022-09-30T15:16:20;3.03;;;2.25;;
9306;SDS011;4691;47.612;7.610;2022-09-30T15:18:47;3.97;;;2.97;;
9306;SDS011;4691;47.612;7.610;2022-09-30T15:21:13;2.55;;;2.35;;
9306;SDS011;4691;47.612;7.610;2022-09-30T15:23:44;5.32;;;2.65;;
9306;SDS011;4691;47.612;7.610;2022-09-30T15:26:16;3.50;;;2.30;;
9306;SDS011;4691;47.612;7.610;2022-09-30T15:28:43;3.15;;;2.22;;
9306;SDS011;4691;47.612;7.610;2022-09-30T15:31:15;2.60;;;2.00;;
9306;SDS011;4691;47.612;7.610;2022-09-30T15:33:46;4.78;;;2.63;;
9306;SDS011;4691;47.612;7.610;2022-09-30T15:36:13;2.95;;;2.30;;
9306;SDS011;4691;47.612;7.610;2022-09-30T15:38:45;2.95;;;2.20;;
9306;SDS011;4691;47.612;7.610;2022-09-30T15:41:13;3.35;;;2.10;;
9306;SDS011;4691;47.612;7.610;2022-09-30T15:46:26;2.80;;;2.20;;
9306;SDS011;4691;47.612;7.610;2022-09-30T15:49:00;3.22;;;2.20;;
9306;SDS011;4691;47.612;7.610;2022-09-30T15:51:32;3.65;;;2.83;;
9306;SDS011;4691;47.612;7.610;2022-09-30T15:54:29;2.70;;;2.30;;
9306;SDS011;4691;47.612;7.610;2022-09-30T15:56:59;2.55;;;2.10;;
9306;SDS011;4691;47.612;7.610;2022-09-30T16:02:26;3.58;;;2.30;;
9306;SDS011;4691;47.612;7.610;2022-09-30T16:04:52;2.63;;;2.42;;
9306;SDS011;4691;47.612;7.610;2022-09-30T16:07:18;3.75;;;2.40;;
9306;SDS011;4691;47.612;7.610;2022-09-30T16:09:50;2.72;;;2.40;;
9306;SDS011;4691;47.612;7.610;2022-09-30T16:12:16;3.80;;;2.53;;
9306;SDS011;4691;47.612;7.610;2022-09-30T16:19:47;2.30;;;2.08;;
9306;SDS011;4691;47.612;7.610;2022-09-30T16:22:31;4.50;;;2.35;;
9306;SDS011;4691;47.612;7.610;2022-09-30T16:24:58;2.90;;;2.53;;
9306;SDS011;4691;47.612;7.610;2022-09-30T16:27:27;3.35;;;2.78;;
9306;SDS011;4691;47.612;7.610;2022-09-30T16:29:55;4.43;;;2.90;;
9306;SDS011;4691;47.612;7.610;2022-09-30T16:32:20;4.55;;;2.90;;
9306;SDS011;4691;47.612;7.610;2022-09-30T16:34:46;3.42;;;2.63;;
9306;SDS011;4691;47.612;7.610;2022-09-30T16:37:12;3.75;;;2.75;;
9306;SDS011;4691;47.612;7.610;2022-09-30T16:39:39;5.40;;;2.88;;
9306;SDS011;4691;47.612;7.610;2022-09-30T16:42:05;8.95;;;6.10;;
9306;SDS011;4691;47.612;7.610;2022-09-30T16:44:33;22.40;;;14.02;;
9306;SDS011;4691;47.612;7.610;2022-09-30T16:47:02;27.20;;;18.00;;
9306;SDS011;4691;47.612;7.610;2022-09-30T16:49:27;18.13;;;12.07;;
9306;SDS011;4691;47.612;7.610;2022-09-30T16:51:53;8.10;;;6.65;;
9306;SDS011;4691;47.612;7.610;2022-09-30T16:54:18;6.07;;;4.10;;
9306;SDS011;4691;47.612;7.610;2022-09-30T16:56:43;5.15;;;4.15;;
9306;SDS011;4691;47.612;7.610;2022-09-30T16:59:12;7.95;;;3.97;;
9306;SDS011;4691;47.612;7.610;2022-09-30T17:01:39;4.50;;;3.65;;
9306;SDS011;4691;47.612;7.610;2022-09-30T17:04:05;4.82;;;3.50;;
9306;SDS011;4691;47.612;7.610;2022-09-30T17:06:31;4.88;;;3.45;;
9306;SDS011;4691;47.612;7.610;2022-09-30T17:08:57;5.47;;;3.97;;
9306;SDS011;4691;47.612;7.610;2022-09-30T17:11:25;6.40;;;5.15;;
9306;SDS011;4691;47.612;7.610;2022-09-30T17:13:53;11.02;;;6.80;;
9306;SDS011;4691;47.612;7.610;2022-09-30T17:16:19;7.53;;;5.03;;
9306;SDS011;4691;47.612;7.610;2022-09-30T17:18:44;6.70;;;5.68;;
9306;SDS011;4691;47.612;7.610;2022-09-30T17:21:09;7.72;;;6.30;;
9306;SDS011;4691;47.612;7.610;2022-09-30T17:23:35;11.77;;;8.45;;
9306;SDS011;4691;47.612;7.610;2022-09-30T17:26:04;17.50;;;11.25;;
9306;SDS011;4691;47.612;7.610;2022-09-30T17:28:30;15.88;;;12.13;;
9306;SDS011;4691;47.612;7.610;2022-09-30T17:30:58;19.27;;;14.02;;
9306;SDS011;4691;47.612;7.610;2022-09-30T17:33:24;20.85;;;14.27;;
9306;SDS011;4691;47.612;7.610;2022-09-30T17:38:23;17.88;;;12.45;;
9306;SDS011;4691;47.612;7.610;2022-09-30T17:40:48;20.58;;;12.18;;
9306;SDS011;4691;47.612;7.610;2022-09-30T17:43:32;19.80;;;13.20;;
9306;SDS011;4691;47.612;7.610;2022-09-30T17:45:57;18.63;;;12.13;;
9306;SDS011;4691;47.612;7.610;2022-09-30T17:48:23;14.10;;;9.70;;
9306;SDS011;4691;47.612;7.610;2022-09-30T17:50:49;12.93;;;9.85;;
9306;SDS011;4691;47.612;7.610;2022-09-30T17:53:16;13.20;;;8.93;;
9306;SDS011;4691;47.612;7.610;2022-09-30T17:55:42;15.68;;;9.52;;
9306;SDS011;4691;47.612;7.610;2022-09-30T17:58:11;11.05;;;8.98;;
9306;SDS011;4691;47.612;7.610;2022-09-30T18:00:36;11.95;;;9.48;;
9306;SDS011;4691;47.612;7.610;2022-09-30T18:03:02;13.02;;;9.23;;
9306;SDS011;4691;47.612;7.610;2022-09-30T18:05:28;13.02;;;9.38;;
9306;SDS011;4691;47.612;7.610;2022-09-30T18:07:55;13.20;;;9.30;;
9306;SDS011;4691;47.612;7.610;2022-09-30T18:10:21;15.48;;;9.07;;
9306;SDS011;4691;47.612;7.610;2022-09-30T18:12:47;12.40;;;9.68;;
9306;SDS011;4691;47.612;7.610;2022-09-30T18:15:15;13.35;;;10.18;;
9306;SDS011;4691;47.612;7.610;2022-09-30T18:17:42;15.65;;;11.63;;
9306;SDS011;4691;47.612;7.610;2022-09-30T18:20:08;15.35;;;12.63;;
9306;SDS011;4691;47.612;7.610;2022-09-30T18:22:34;17.25;;;13.05;;
9306;SDS011;4691;47.612;7.610;2022-09-30T18:24:59;17.48;;;13.80;;
9306;SDS011;4691;47.612;7.610;2022-09-30T18:27:43;21.75;;;15.30;;
9306;SDS011;4691;47.612;7.610;2022-09-30T18:30:09;22.00;;;16.63;;
9306;SDS011;4691;47.612;7.610;2022-09-30T18:32:35;20.27;;;16.52;;
9306;SDS011;4691;47.612;7.610;2022-09-30T18:55:36;15.98;;;12.55;;
9306;SDS011;4691;47.612;7.610;2022-09-30T18:58:02;20.52;;;13.23;;
9306;SDS011;4691;47.612;7.610;2022-09-30T19:00:27;17.80;;;12.07;;
9306;SDS011;4691;47.612;7.610;2022-09-30T19:02:54;21.05;;;13.40;;
9306;SDS011;4691;47.612;7.610;2022-09-30T19:05:19;21.70;;;15.32;;
9306;SDS011;4691;47.612;7.610;2022-09-30T19:07:45;25.48;;;16.55;;
9306;SDS011;4691;47.612;7.610;2022-09-30T19:10:10;25.30;;;16.02;;
9306;SDS011;4691;47.612;7.610;2022-09-30T19:12:37;22.40;;;15.88;;
9306;SDS011;4691;47.612;7.610;2022-09-30T19:15:04;20.73;;;15.30;;
9306;SDS011;4691;47.612;7.610;2022-09-30T19:17:32;23.40;;;18.00;;
9306;SDS011;4691;47.612;7.610;2022-09-30T19:19:57;27.45;;;19.35;;
9306;SDS011;4691;47.612;7.610;2022-09-30T19:22:27;26.30;;;19.52;;
9306;SDS011;4691;47.612;7.610;2022-09-30T19:24:52;21.20;;;18.20;;
9306;SDS011;4691;47.612;7.610;2022-09-30T19:27:18;20.65;;;16.05;;
9306;SDS011;4691;47.612;7.610;2022-09-30T19:29:44;20.30;;;15.07;;
9306;SDS011;4691;47.612;7.610;2022-09-30T19:32:09;15.82;;;12.32;;
9306;SDS011;4691;47.612;7.610;2022-09-30T19:34:36;15.18;;;12.05;;
9306;SDS011;4691;47.612;7.610;2022-09-30T19:37:02;18.45;;;12.05;;
9306;SDS011;4691;47.612;7.610;2022-09-30T19:39:28;16.85;;;12.35;;
9306;SDS011;4691;47.612;7.610;2022-09-30T19:41:54;16.73;;;11.60;;
9306;SDS011;4691;47.612;7.610;2022-09-30T19:44:22;17.25;;;12.45;;
9306;SDS011;4691;47.612;7.610;2022-09-30T19:46:48;18.33;;;12.98;;
9306;SDS011;4691;47.612;7.610;2022-09-30T19:49:14;20.35;;;15.63;;
9306;SDS011;4691;47.612;7.610;2022-09-30T19:51:40;22.05;;;17.15;;
9306;SDS011;4691;47.612;7.610;2022-09-30T19:54:06;19.02;;;15.13;;
9306;SDS011;4691;47.612;7.610;2022-09-30T19:56:31;23.17;;;15.85;;
9306;SDS011;4691;47.612;7.610;2022-09-30T19:58:57;20.50;;;14.73;;
9306;SDS011;4691;47.612;7.610;2022-09-30T20:01:24;21.30;;;15.68;;
9306;SDS011;4691;47.612;7.610;2022-09-30T20:03:53;21.08;;;16.40;;
9306;SDS011;4691;47.612;7.610;2022-09-30T20:06:20;23.08;;;16.60;;
9306;SDS011;4691;47.612;7.610;2022-09-30T20:08:49;20.40;;;15.68;;
9306;SDS011;4691;47.612;7.610;2022-09-30T20:11:17;23.23;;;14.75;;
9306;SDS011;4691;47.612;7.610;2022-09-30T20:13:47;19.88;;;14.93;;
9306;SDS011;4691;47.612;7.610;2022-09-30T20:16:14;18.92;;;14.35;;
9306;SDS011;4691;47.612;7.610;2022-09-30T20:18:40;21.33;;;13.45;;
9306;SDS011;4691;47.612;7.610;2022-09-30T20:21:13;22.42;;;15.23;;